createdAt,value
2022-08-10T00:00:05.114Z,4.3
2022-08-10T00:05:05.106Z,4.3
2022-08-10T00:10:05.111Z,4.7
2022-08-10T00:15:05.103Z,4.7
2022-08-10T00:20:08.374Z,4.1
2022-08-10T00:25:05.110Z,4.1
2022-08-10T00:30:05.112Z,4.4
2022-08-10T00:35:05.109Z,4.4
2022-08-10T00:40:05.168Z,4.5
2022-08-10T00:45:05.106Z,4.5
2022-08-10T00:50:05.114Z,4.4
2022-08-10T00:55:05.106Z,4.4
2022-08-10T01:00:05.116Z,4.4
2022-08-10T01:05:05.121Z,4.4
2022-08-10T01:10:05.114Z,4.3
2022-08-10T01:15:05.107Z,4.3
2022-08-10T01:20:05.109Z,4.7
2022-08-10T01:25:05.111Z,4.7
2022-08-10T01:30:05.116Z,4.3
2022-08-10T01:35:05.111Z,4.3
2022-08-10T01:40:05.116Z,4.7
2022-08-10T01:45:05.107Z,4.7
2022-08-10T01:50:05.111Z,4.6
2022-08-10T01:55:05.101Z,4.6
2022-08-10T02:00:05.115Z,4.5
2022-08-10T02:05:05.116Z,4.5
2022-08-10T02:10:05.120Z,4.5
2022-08-10T02:15:05.107Z,4.5
2022-08-10T02:20:05.119Z,4.5
2022-08-10T02:25:05.105Z,4.5
2022-08-10T02:30:05.113Z,4.6
2022-08-10T02:35:05.104Z,4.6
2022-08-10T02:40:05.113Z,4.9
2022-08-10T02:45:17.553Z,4.9
2022-08-10T02:50:05.109Z,4.5
2022-08-10T02:55:06.092Z,4.5
2022-08-10T03:00:05.109Z,4.2
2022-08-10T03:05:05.108Z,4.2
2022-08-10T03:10:05.115Z,4.7
2022-08-10T03:15:05.105Z,4.7
2022-08-10T03:20:36.120Z,5
2022-08-10T03:25:05.103Z,5
2022-08-10T03:30:23.686Z,4.7
2022-08-10T03:35:05.101Z,4.7
2022-08-10T03:40:05.111Z,4.2
2022-08-10T03:45:05.107Z,4.2
2022-08-10T03:50:28.886Z,4.5
2022-08-10T03:55:05.101Z,4.5
2022-08-10T04:00:05.105Z,4.2
2022-08-10T04:05:05.100Z,4.2
2022-08-10T04:10:05.106Z,4.3
2022-08-10T04:15:05.101Z,4.3
2022-08-10T04:20:05.115Z,4.6
2022-08-10T04:25:05.095Z,4.6
2022-08-10T04:30:05.114Z,4.3
2022-08-10T04:35:05.113Z,4.3
2022-08-10T04:40:05.101Z,4.5
2022-08-10T04:45:05.097Z,4.5
2022-08-10T04:50:05.104Z,4.7
2022-08-10T04:55:05.099Z,4.7
2022-08-10T05:00:07.537Z,4.3
2022-08-10T05:05:05.102Z,4.3
2022-08-10T05:10:07.526Z,4.5
2022-08-10T05:15:05.099Z,4.5
2022-08-10T05:20:07.389Z,4.9
2022-08-10T05:25:05.104Z,4.9
2022-08-10T05:30:05.124Z,4.7
2022-08-10T05:35:05.114Z,4.7
2022-08-10T05:40:05.102Z,5.1
2022-08-10T05:45:05.102Z,5.1
2022-08-10T05:50:05.179Z,4.4
2022-08-10T05:55:05.099Z,4.4
2022-08-10T06:00:09.726Z,4.3
2022-08-10T06:05:05.099Z,4.3
2022-08-10T06:10:06.803Z,4.5
2022-08-10T06:15:09.993Z,4.5
2022-08-10T06:20:05.105Z,4.5
2022-08-10T06:25:32.252Z,4.5
2022-08-10T06:30:05.106Z,4.8
2022-08-10T06:35:05.098Z,4.8
2022-08-10T06:40:05.143Z,4.6
2022-08-10T06:45:05.111Z,4.6
2022-08-10T06:50:08.709Z,4.4
2022-08-10T06:55:07.312Z,4.4
2022-08-10T07:00:05.109Z,4.8
2022-08-10T07:05:05.107Z,4.8
2022-08-10T07:10:05.112Z,4.1
2022-08-10T07:15:05.096Z,4.1
2022-08-10T07:20:05.099Z,3.9
2022-08-10T07:25:05.886Z,3.9
2022-08-10T07:30:05.102Z,4.2
2022-08-10T07:35:05.107Z,4.2
2022-08-10T07:40:05.241Z,3.8
2022-08-10T07:45:05.099Z,3.8
2022-08-10T07:50:05.104Z,4.1
2022-08-10T07:55:05.101Z,4.1
2022-08-10T08:00:05.104Z,3.5
2022-08-10T08:05:05.096Z,3.5
2022-08-10T08:10:05.363Z,3.5
2022-08-10T08:15:13.816Z,3.5
2022-08-10T08:20:05.262Z,3.7
2022-08-10T08:25:08.287Z,3.7
2022-08-10T08:30:05.108Z,3.6
2022-08-10T08:35:05.113Z,3.6
2022-08-10T08:40:05.108Z,3.5
2022-08-10T08:45:05.116Z,3.5
2022-08-10T08:50:09.242Z,3.4
2022-08-10T08:55:05.110Z,3.4
2022-08-10T09:00:05.119Z,3.1
2022-08-10T09:05:05.100Z,3.1
2022-08-10T09:10:05.103Z,2.9
2022-08-10T09:15:05.109Z,2.9
2022-08-10T09:20:05.115Z,3
2022-08-10T09:25:05.101Z,3
2022-08-10T09:30:05.117Z,2.9
2022-08-10T09:36:17.789Z,2.9
2022-08-10T09:40:06.244Z,2.9
2022-08-10T09:45:05.105Z,2.9
2022-08-10T09:50:05.307Z,3.4
2022-08-10T09:55:05.098Z,3.4
2022-08-10T10:00:05.114Z,3.4
2022-08-10T10:05:05.103Z,3.4
2022-08-10T10:10:05.111Z,3.3
2022-08-10T10:15:05.106Z,3.3
2022-08-10T10:20:05.110Z,3
2022-08-10T10:25:18.174Z,3
2022-08-10T10:30:05.117Z,3.8
2022-08-10T10:35:05.104Z,3.8
2022-08-10T10:40:05.123Z,2.9
2022-08-10T10:45:05.099Z,2.9
2022-08-10T10:50:05.109Z,3.2
2022-08-10T10:55:05.123Z,3.2
2022-08-10T11:00:05.105Z,3.1
2022-08-10T11:05:05.103Z,3.1
2022-08-10T11:10:09.916Z,3.2
2022-08-10T11:15:05.101Z,3.2
2022-08-10T11:20:05.105Z,3.2
2022-08-10T11:25:05.109Z,3.2
2022-08-10T11:30:05.117Z,3.1
2022-08-10T11:35:10.708Z,3.1
2022-08-10T11:40:05.181Z,2.8
2022-08-10T11:45:05.109Z,2.8
2022-08-10T11:50:05.107Z,3.1
2022-08-10T11:55:05.099Z,3.1
2022-08-10T12:00:05.125Z,2.9
2022-08-10T12:05:05.108Z,2.9
2022-08-10T12:10:13.342Z,3.1
2022-08-10T12:15:05.102Z,3.1
2022-08-10T12:20:05.106Z,3.1
2022-08-10T12:25:05.099Z,3.1
2022-08-10T12:30:05.112Z,2.7
2022-08-10T12:35:05.105Z,2.7
2022-08-10T12:40:33.737Z,3.4
2022-08-10T12:45:05.109Z,3.4
2022-08-10T12:50:14.061Z,3.2
2022-08-10T12:55:05.109Z,3.2
2022-08-10T13:00:05.130Z,3.3
2022-08-10T13:05:05.104Z,3.3
2022-08-10T13:10:05.125Z,3.3
2022-08-10T13:15:28.318Z,3.3
2022-08-10T13:20:12.590Z,2.9
2022-08-10T13:25:05.101Z,2.9
2022-08-10T13:30:05.177Z,3.4
2022-08-10T13:35:05.111Z,3.4
2022-08-10T13:40:05.234Z,3.3
2022-08-10T13:45:05.100Z,3.3
2022-08-10T13:50:05.130Z,3.1
2022-08-10T13:55:05.096Z,3.1
2022-08-10T14:00:33.212Z,3.2
2022-08-10T14:05:05.104Z,3.2
2022-08-10T14:10:05.115Z,2.9
2022-08-10T14:15:05.100Z,2.9
2022-08-10T14:20:08.076Z,3
2022-08-10T14:25:05.106Z,3
2022-08-10T14:30:05.100Z,3.5
2022-08-10T14:36:15.814Z,3.5
2022-08-10T14:40:05.111Z,3.1
2022-08-10T14:45:05.105Z,3.1
2022-08-10T14:50:05.166Z,3.2
2022-08-10T14:55:05.104Z,3.2
2022-08-10T15:00:20.912Z,3.3
2022-08-10T15:05:09.244Z,3.3
2022-08-10T15:10:05.148Z,3.1
2022-08-10T15:15:05.103Z,3.1
2022-08-10T15:20:13.380Z,3.3
2022-08-10T15:25:05.103Z,3.3
2022-08-10T15:30:05.115Z,3.4
2022-08-10T15:35:05.098Z,3.4
2022-08-10T15:40:22.867Z,3.7
2022-08-10T15:45:05.107Z,3.7
2022-08-10T15:50:05.111Z,3.3
2022-08-10T15:55:42.184Z,3.3
2022-08-10T16:00:05.110Z,3.5
2022-08-10T16:05:05.109Z,3.5
2022-08-10T16:10:11.500Z,3.5
2022-08-10T16:15:07.862Z,3.5
2022-08-10T16:20:05.109Z,3.6
2022-08-10T16:25:05.102Z,3.6
2022-08-10T16:30:05.110Z,3.6
2022-08-10T16:35:09.092Z,3.6
2022-08-10T16:40:05.196Z,3.6
2022-08-10T16:45:05.106Z,3.6
2022-08-10T16:50:05.122Z,3.6
2022-08-10T16:55:05.556Z,3.6
2022-08-10T17:00:05.115Z,3.5
2022-08-10T17:05:05.103Z,3.5
2022-08-10T17:10:05.108Z,3.7
2022-08-10T17:15:09.887Z,3.7
2022-08-10T17:20:29.949Z,3.4
2022-08-10T17:25:05.106Z,3.4
2022-08-10T17:30:05.824Z,3.6
2022-08-10T17:35:05.104Z,3.6
2022-08-10T17:40:05.108Z,3.6
2022-08-10T17:45:05.106Z,3.6
2022-08-10T17:50:05.114Z,3.2
2022-08-10T17:55:05.111Z,3.2
2022-08-10T18:00:05.111Z,3.7
2022-08-10T18:05:05.120Z,3.7
2022-08-10T18:10:05.123Z,3.8
2022-08-10T18:15:05.105Z,3.8
2022-08-10T18:20:05.110Z,3.5
2022-08-10T18:25:05.107Z,3.5
2022-08-10T18:30:05.117Z,3.5
2022-08-10T18:35:05.123Z,3.5
2022-08-10T18:40:05.105Z,3.4
2022-08-10T18:45:05.101Z,3.4
2022-08-10T18:50:05.107Z,3.8
2022-08-10T18:55:05.101Z,3.8
2022-08-10T19:00:07.762Z,3.5
2022-08-10T19:05:05.136Z,3.5
2022-08-10T19:10:05.112Z,3.8
2022-08-10T19:15:06.004Z,3.8
2022-08-10T19:20:05.110Z,3.9
2022-08-10T19:25:05.107Z,3.9
2022-08-10T19:30:10.368Z,3.7
2022-08-10T19:35:05.117Z,3.7
2022-08-10T19:40:05.163Z,3.5
2022-08-10T19:45:05.109Z,3.5
2022-08-10T19:50:05.120Z,3.7
2022-08-10T19:55:05.106Z,3.7
2022-08-10T20:00:06.485Z,3.8
2022-08-10T20:05:05.115Z,3.8
2022-08-10T20:10:05.126Z,3.7
2022-08-10T20:15:05.106Z,3.7
2022-08-10T20:20:05.113Z,3.7
2022-08-10T20:25:05.110Z,3.7
2022-08-10T20:30:05.125Z,3.8
2022-08-10T20:35:05.108Z,3.8
2022-08-10T20:40:05.114Z,3.8
2022-08-10T20:45:05.107Z,3.8
2022-08-10T20:50:05.123Z,3.9
2022-08-10T20:55:05.111Z,3.9
2022-08-10T21:00:05.362Z,4.4
2022-08-10T21:05:05.105Z,4.4
2022-08-10T21:10:05.117Z,4.1
2022-08-10T21:15:05.105Z,4.1
2022-08-10T21:20:05.116Z,4.3
2022-08-10T21:25:05.104Z,4.3
2022-08-10T21:30:08.716Z,3.8
2022-08-10T21:35:05.260Z,3.8
2022-08-10T21:40:05.157Z,4
2022-08-10T21:45:07.888Z,4
2022-08-10T21:50:07.388Z,4
2022-08-10T21:55:05.111Z,4
2022-08-10T22:00:05.115Z,3.7
2022-08-10T22:05:05.118Z,3.7
2022-08-10T22:10:05.112Z,4.1
2022-08-10T22:15:05.109Z,4.1
2022-08-10T22:20:05.114Z,4.4
2022-08-10T22:25:05.108Z,4.4
2022-08-10T22:30:06.475Z,4.3
2022-08-10T22:35:05.111Z,4.3
2022-08-10T22:40:07.468Z,4.1
2022-08-10T22:45:05.332Z,4.1
2022-08-10T22:50:07.347Z,4.1
2022-08-10T22:55:05.100Z,4.1
2022-08-10T23:00:05.110Z,4
2022-08-10T23:05:05.095Z,4
2022-08-10T23:10:05.100Z,4
2022-08-10T23:15:05.100Z,4
2022-08-10T23:20:05.112Z,4
2022-08-10T23:25:05.093Z,4
2022-08-10T23:30:10.029Z,3.9
2022-08-10T23:36:05.311Z,3.9
2022-08-10T23:40:05.128Z,4.2
2022-08-10T23:45:05.095Z,4.2
2022-08-10T23:50:05.100Z,4.2
2022-08-10T23:55:05.094Z,4.2
